sensor_id;sensor_type;location;lat;lon;timestamp;pressure;altitude;pressure_sealevel;temperature;humidity
78745;BME280;68064;53.100;8.824;2023-07-31T00:00:44;100932.59;;;15.71;76.29
78745;BME280;68064;53.100;8.824;2023-07-31T00:01:45;100932.59;;;15.69;73.15
78745;BME280;68064;53.100;8.824;2023-07-31T00:02:46;100919.81;;;15.75;72.68
78745;BME280;68064;53.100;8.824;2023-07-31T00:03:47;100925.88;;;15.76;74.20
78745;BME280;68064;53.100;8.824;2023-07-31T00:04:48;100929.22;;;15.73;76.84
78745;BME280;68064;53.100;8.824;2023-07-31T00:05:49;100921.38;;;15.69;76.45
78745;BME280;68064;53.100;8.824;2023-07-31T00:06:50;100921.41;;;15.70;75.82
78745;BME280;68064;53.100;8.824;2023-07-31T00:07:51;100920.66;;;15.74;73.64
78745;BME280;68064;53.100;8.824;2023-07-31T00:08:52;100913.03;;;15.79;72.58
78745;BME280;68064;53.100;8.824;2023-07-31T00:09:54;100917.31;;;15.78;77.87
78745;BME280;68064;53.100;8.824;2023-07-31T00:10:55;100911.34;;;15.81;73.20
78745;BME280;68064;53.100;8.824;2023-07-31T00:11:56;100919.91;;;15.80;77.40
78745;BME280;68064;53.100;8.824;2023-07-31T00:12:57;100913.03;;;15.80;76.21
78745;BME280;68064;53.100;8.824;2023-07-31T00:13:58;100916.44;;;15.78;75.46
78745;BME280;68064;53.100;8.824;2023-07-31T00:14:59;100916.44;;;15.78;72.70
78745;BME280;68064;53.100;8.824;2023-07-31T00:16:00;100912.22;;;15.81;73.43
78745;BME280;68064;53.100;8.824;2023-07-31T00:17:01;100914.81;;;15.83;72.86
78745;BME280;68064;53.100;8.824;2023-07-31T00:18:02;100913.91;;;15.81;74.12
78745;BME280;68064;53.100;8.824;2023-07-31T00:19:04;100906.97;;;15.78;72.67
78745;BME280;68064;53.100;8.824;2023-07-31T00:20:06;100914.00;;;15.84;76.31
78745;BME280;68064;53.100;8.824;2023-07-31T00:21:07;100914.78;;;15.81;74.61
78745;BME280;68064;53.100;8.824;2023-07-31T00:22:08;100910.47;;;15.80;76.58
78745;BME280;68064;53.100;8.824;2023-07-31T00:23:09;100917.41;;;15.83;77.23
78745;BME280;68064;53.100;8.824;2023-07-31T00:24:09;100914.09;;;15.88;77.94
78745;BME280;68064;53.100;8.824;2023-07-31T00:25:12;100911.47;;;15.85;78.25
78745;BME280;68064;53.100;8.824;2023-07-31T00:26:13;100911.34;;;15.81;76.20
78745;BME280;68064;53.100;8.824;2023-07-31T00:27:14;100909.66;;;15.83;73.11
78745;BME280;68064;53.100;8.824;2023-07-31T00:28:15;100914.00;;;15.84;73.36
78745;BME280;68064;53.100;8.824;2023-07-31T00:29:16;100913.16;;;15.85;75.88
78745;BME280;68064;53.100;8.824;2023-07-31T00:30:17;100918.38;;;15.88;76.91
78745;BME280;68064;53.100;8.824;2023-07-31T00:31:18;100916.63;;;15.85;76.04
78745;BME280;68064;53.100;8.824;2023-07-31T00:32:19;100908.94;;;15.88;77.27
78745;BME280;68064;53.100;8.824;2023-07-31T00:33:20;100911.47;;;15.85;76.51
78745;BME280;68064;53.100;8.824;2023-07-31T00:34:21;100916.56;;;15.84;75.44
78745;BME280;68064;53.100;8.824;2023-07-31T00:35:22;100909.66;;;15.83;73.07
78745;BME280;68064;53.100;8.824;2023-07-31T00:36:23;100912.31;;;15.86;74.59
78745;BME280;68064;53.100;8.824;2023-07-31T00:37:24;100907.19;;;15.89;74.00
78745;BME280;68064;53.100;8.824;2023-07-31T00:38:25;100910.56;;;15.85;74.04
78745;BME280;68064;53.100;8.824;2023-07-31T00:39:26;100907.19;;;15.87;76.69
78745;BME280;68064;53.100;8.824;2023-07-31T00:40:29;100899.44;;;15.87;73.44
78745;BME280;68064;53.100;8.824;2023-07-31T00:41:30;100891.72;;;15.89;72.03
78745;BME280;68064;53.100;8.824;2023-07-31T00:42:31;100901.19;;;15.88;73.91
78745;BME280;68064;53.100;8.824;2023-07-31T00:43:32;100892.59;;;15.89;75.88
78745;BME280;68064;53.100;8.824;2023-07-31T00:44:33;100895.22;;;15.91;72.98
78745;BME280;68064;53.100;8.824;2023-07-31T00:45:34;100908.06;;;15.88;77.26
78745;BME280;68064;53.100;8.824;2023-07-31T00:46:35;100894.41;;;15.92;72.67
78745;BME280;68064;53.100;8.824;2023-07-31T00:47:36;100901.28;;;15.93;75.30
78745;BME280;68064;53.100;8.824;2023-07-31T00:48:38;100898.69;;;15.92;77.37
78745;BME280;68064;53.100;8.824;2023-07-31T00:49:40;100896.94;;;15.91;74.43
78745;BME280;68064;53.100;8.824;2023-07-31T00:50:41;100896.94;;;15.91;75.76
78745;BME280;68064;53.100;8.824;2023-07-31T00:51:42;100890.00;;;15.89;75.13
78745;BME280;68064;53.100;8.824;2023-07-31T00:52:43;100891.75;;;15.91;72.52
78745;BME280;68064;53.100;8.824;2023-07-31T00:53:45;100895.19;;;15.89;74.03
78745;BME280;68064;53.100;8.824;2023-07-31T00:54:48;100902.91;;;15.88;76.48
78745;BME280;68064;53.100;8.824;2023-07-31T00:55:52;100891.63;;;15.84;75.18
78745;BME280;68064;53.100;8.824;2023-07-31T00:56:54;100887.34;;;15.85;77.94
78745;BME280;68064;53.100;8.824;2023-07-31T00:57:56;100890.69;;;15.81;75.40
78745;BME280;68064;53.100;8.824;2023-07-31T00:58:57;100879.59;;;15.85;75.75
78745;BME280;68064;53.100;8.824;2023-07-31T00:59:58;100883.94;;;15.87;72.89
78745;BME280;68064;53.100;8.824;2023-07-31T01:00:59;100885.63;;;15.85;74.67
78745;BME280;68064;53.100;8.824;2023-07-31T01:02:00;100883.88;;;15.84;72.83
78745;BME280;68064;53.100;8.824;2023-07-31T01:03:02;100883.00;;;15.82;77.33
78745;BME280;68064;53.100;8.824;2023-07-31T01:04:04;100878.66;;;15.81;76.80
78745;BME280;68064;53.100;8.824;2023-07-31T01:05:05;100884.63;;;15.79;76.20
78745;BME280;68064;53.100;8.824;2023-07-31T01:06:15;100883.69;;;15.75;75.53
78745;BME280;68064;53.100;8.824;2023-07-31T01:07:30;100880.25;;;15.76;75.22
78745;BME280;68064;53.100;8.824;2023-07-31T01:08:40;100879.41;;;15.77;74.53
78745;BME280;68064;53.100;8.824;2023-07-31T01:09:47;100875.16;;;15.79;73.37
78745;BME280;68064;53.100;8.824;2023-07-31T01:10:56;100878.66;;;15.81;78.74
78745;BME280;68064;53.100;8.824;2023-07-31T01:12:02;100876.88;;;15.79;74.13
78745;BME280;68064;53.100;8.824;2023-07-31T01:13:05;100875.25;;;15.82;73.22
78745;BME280;68064;53.100;8.824;2023-07-31T01:14:07;100873.44;;;15.80;74.70
78745;BME280;68064;53.100;8.824;2023-07-31T01:15:08;100868.34;;;15.81;74.76
78745;BME280;68064;53.100;8.824;2023-07-31T01:16:10;100871.81;;;15.83;72.69
78745;BME280;68064;53.100;8.824;2023-07-31T01:17:11;100866.75;;;15.88;73.08
78745;BME280;68064;53.100;8.824;2023-07-31T01:18:12;100868.34;;;15.83;78.26
78745;BME280;68064;53.100;8.824;2023-07-31T01:19:14;100874.31;;;15.79;74.33
78745;BME280;68064;53.100;8.824;2023-07-31T01:20:20;100872.56;;;15.79;77.96
78745;BME280;68064;53.100;8.824;2023-07-31T01:21:32;100870.88;;;15.80;77.89
78745;BME280;68064;53.100;8.824;2023-07-31T01:22:54;100869.97;;;15.79;74.38
78745;BME280;68064;53.100;8.824;2023-07-31T01:24:22;100873.34;;;15.75;76.77
78745;BME280;68064;53.100;8.824;2023-07-31T01:25:46;100885.53;;;15.81;77.28
78745;BME280;68064;53.100;8.824;2023-07-31T01:26:53;100891.50;;;15.80;77.30
78745;BME280;68064;53.100;8.824;2023-07-31T01:28:00;100887.28;;;15.82;74.79
78745;BME280;68064;53.100;8.824;2023-07-31T01:29:08;100890.75;;;15.82;77.34
78745;BME280;68064;53.100;8.824;2023-07-31T01:30:15;100888.94;;;15.80;74.56
78745;BME280;68064;53.100;8.824;2023-07-31T01:31:20;100887.22;;;15.79;79.57
78745;BME280;68064;53.100;8.824;2023-07-31T01:32:22;100894.03;;;15.77;80.06
78745;BME280;68064;53.100;8.824;2023-07-31T01:33:24;100888.88;;;15.77;77.87
78745;BME280;68064;53.100;8.824;2023-07-31T01:34:27;100880.25;;;15.76;76.08
78745;BME280;68064;53.100;8.824;2023-07-31T01:35:29;100885.38;;;15.75;76.52
78745;BME280;68064;53.100;8.824;2023-07-31T01:36:30;100881.16;;;15.78;73.88
78745;BME280;68064;53.100;8.824;2023-07-31T01:37:32;100876.03;;;15.80;79.35
78745;BME280;68064;53.100;8.824;2023-07-31T01:38:33;100869.97;;;15.79;74.97
78745;BME280;68064;53.100;8.824;2023-07-31T01:39:34;100870.84;;;15.78;76.23
78745;BME280;68064;53.100;8.824;2023-07-31T01:40:35;100872.72;;;15.85;75.23
78745;BME280;68064;53.100;8.824;2023-07-31T01:41:37;100870.03;;;15.81;74.15
78745;BME280;68064;53.100;8.824;2023-07-31T01:42:38;100864.91;;;15.82;72.92
78745;BME280;68064;53.100;8.824;2023-07-31T01:43:39;100870.16;;;15.87;76.47
78745;BME280;68064;53.100;8.824;2023-07-31T01:44:40;100855.44;;;15.83;74.04
78745;BME280;68064;53.100;8.824;2023-07-31T01:45:41;100863.13;;;15.80;77.30
78745;BME280;68064;53.100;8.824;2023-07-31T01:46:42;100855.41;;;15.81;74.83
78745;BME280;68064;53.100;8.824;2023-07-31T01:47:44;100856.38;;;15.85;78.61
78745;BME280;68064;53.100;8.824;2023-07-31T01:48:45;100857.94;;;15.78;79.13
78745;BME280;68064;53.100;8.824;2023-07-31T01:49:46;100850.25;;;15.81;76.53
78745;BME280;68064;53.100;8.824;2023-07-31T01:50:47;100855.44;;;15.83;79.14
78745;BME280;68064;53.100;8.824;2023-07-31T01:51:48;100852.78;;;15.80;80.11
78745;BME280;68064;53.100;8.824;2023-07-31T01:52:49;100849.34;;;15.79;79.49
78745;BME280;68064;53.100;8.824;2023-07-31T01:53:50;100850.19;;;15.78;78.74
78745;BME280;68064;53.100;8.824;2023-07-31T01:54:51;100847.63;;;15.80;78.05
78745;BME280;68064;53.100;8.824;2023-07-31T01:55:52;100847.69;;;15.81;79.02
78745;BME280;68064;53.100;8.824;2023-07-31T01:56:54;100853.66;;;15.79;78.44
78745;BME280;68064;53.100;8.824;2023-07-31T01:57:55;100844.16;;;15.78;77.18
78745;BME280;68064;53.100;8.824;2023-07-31T01:58:57;100846.81;;;15.81;75.31
78745;BME280;68064;53.100;8.824;2023-07-31T01:59:58;100844.28;;;15.82;75.70
78745;BME280;68064;53.100;8.824;2023-07-31T02:00:59;100842.47;;;15.80;79.27
78745;BME280;68064;53.100;8.824;2023-07-31T02:02:00;100841.75;;;15.85;74.95
78745;BME280;68064;53.100;8.824;2023-07-31T02:03:01;100842.41;;;15.77;76.15
78745;BME280;68064;53.100;8.824;2023-07-31T02:04:02;100833.91;;;15.81;74.36
78745;BME280;68064;53.100;8.824;2023-07-31T02:05:04;100842.44;;;15.78;79.20
78745;BME280;68064;53.100;8.824;2023-07-31T02:06:05;100835.59;;;15.79;76.87
78745;BME280;68064;53.100;8.824;2023-07-31T02:07:06;100839.88;;;15.78;76.62
78745;BME280;68064;53.100;8.824;2023-07-31T02:08:07;100835.59;;;15.80;75.22
78745;BME280;68064;53.100;8.824;2023-07-31T02:09:08;100832.28;;;15.86;74.02
78745;BME280;68064;53.100;8.824;2023-07-31T02:10:09;100836.41;;;15.78;79.94
78745;BME280;68064;53.100;8.824;2023-07-31T02:11:10;100834.66;;;15.77;79.07
78745;BME280;68064;53.100;8.824;2023-07-31T02:12:12;100828.53;;;15.72;78.12
78745;BME280;68064;53.100;8.824;2023-07-31T02:13:14;100831.88;;;15.68;81.79
78745;BME280;68064;53.100;8.824;2023-07-31T02:14:15;100832.72;;;15.67;77.51
78745;BME280;68064;53.100;8.824;2023-07-31T02:15:16;100828.59;;;15.75;76.60
78745;BME280;68064;53.100;8.824;2023-07-31T02:16:17;100830.28;;;15.73;78.28
78745;BME280;68064;53.100;8.824;2023-07-31T02:17:18;100830.44;;;15.79;78.64
78745;BME280;68064;53.100;8.824;2023-07-31T02:18:19;100829.31;;;15.68;81.93
78745;BME280;68064;53.100;8.824;2023-07-31T02:19:20;100826.53;;;15.59;79.20
78745;BME280;68064;53.100;8.824;2023-07-31T02:20:22;100826.72;;;15.68;79.21
78745;BME280;68064;53.100;8.824;2023-07-31T02:21:23;100820.72;;;15.69;76.65
78745;BME280;68064;53.100;8.824;2023-07-31T02:22:24;100824.00;;;15.62;81.34
78745;BME280;68064;53.100;8.824;2023-07-31T02:23:25;100824.06;;;15.65;77.52
78745;BME280;68064;53.100;8.824;2023-07-31T02:24:26;100827.53;;;15.65;78.91
78745;BME280;68064;53.100;8.824;2023-07-31T02:25:27;100818.84;;;15.62;80.57
78745;BME280;68064;53.100;8.824;2023-07-31T02:26:28;100814.63;;;15.67;76.61
78745;BME280;68064;53.100;8.824;2023-07-31T02:27:30;100819.03;;;15.71;78.54
78745;BME280;68064;53.100;8.824;2023-07-31T02:28:31;100815.25;;;15.54;82.60
78745;BME280;68064;53.100;8.824;2023-07-31T02:29:32;100811.91;;;15.59;80.53
78745;BME280;68064;53.100;8.824;2023-07-31T02:30:33;100804.19;;;15.61;79.02
78745;BME280;68064;53.100;8.824;2023-07-31T02:31:34;100807.69;;;15.63;79.51
78745;BME280;68064;53.100;8.824;2023-07-31T02:32:35;100803.44;;;15.65;79.77
78745;BME280;68064;53.100;8.824;2023-07-31T02:33:36;100803.53;;;15.69;75.88
78745;BME280;68064;53.100;8.824;2023-07-31T02:34:37;100812.91;;;15.66;82.57
78745;BME280;68064;53.100;8.824;2023-07-31T02:35:40;100810.41;;;15.69;76.77
78745;BME280;68064;53.100;8.824;2023-07-31T02:36:41;100818.03;;;15.64;80.40
78745;BME280;68064;53.100;8.824;2023-07-31T02:37:45;100818.03;;;15.63;77.37
78745;BME280;68064;53.100;8.824;2023-07-31T02:38:46;100823.03;;;15.57;82.70
78745;BME280;68064;53.100;8.824;2023-07-31T02:39:47;100816.25;;;15.62;77.16
78745;BME280;68064;53.100;8.824;2023-07-31T02:40:48;100823.94;;;15.59;79.10
78745;BME280;68064;53.100;8.824;2023-07-31T02:41:49;100813.63;;;15.60;76.67
78745;BME280;68064;53.100;8.824;2023-07-31T02:42:52;100818.91;;;15.65;77.67
78745;BME280;68064;53.100;8.824;2023-07-31T02:43:53;100816.38;;;15.66;75.62
78745;BME280;68064;53.100;8.824;2023-07-31T02:44:54;100814.69;;;15.68;74.77
78745;BME280;68064;53.100;8.824;2023-07-31T02:45:55;100811.16;;;15.63;76.28
78745;BME280;68064;53.100;8.824;2023-07-31T02:46:56;100816.41;;;15.68;75.68
78745;BME280;68064;53.100;8.824;2023-07-31T02:47:57;100808.66;;;15.68;75.47
78745;BME280;68064;53.100;8.824;2023-07-31T02:48:58;100813.00;;;15.69;74.92
78745;BME280;68064;53.100;8.824;2023-07-31T02:49:59;100812.09;;;15.68;75.38
78745;BME280;68064;53.100;8.824;2023-07-31T02:51:00;100807.72;;;15.64;78.44
78745;BME280;68064;53.100;8.824;2023-07-31T02:52:01;100805.88;;;15.60;80.40
78745;BME280;68064;53.100;8.824;2023-07-31T02:53:03;100804.13;;;15.58;76.68
78745;BME280;68064;53.100;8.824;2023-07-31T02:54:04;100806.78;;;15.61;76.28
78745;BME280;68064;53.100;8.824;2023-07-31T02:55:06;100808.47;;;15.60;76.80
78745;BME280;68064;53.100;8.824;2023-07-31T02:56:07;100805.00;;;15.58;77.93
78745;BME280;68064;53.100;8.824;2023-07-31T02:57:08;100810.22;;;15.60;76.50
78745;BME280;68064;53.100;8.824;2023-07-31T02:58:11;100808.41;;;15.57;76.37
78745;BME280;68064;53.100;8.824;2023-07-31T02:59:12;100807.69;;;15.63;74.61
78745;BME280;68064;53.100;8.824;2023-07-31T03:00:13;100809.28;;;15.58;77.73
78745;BME280;68064;53.100;8.824;2023-07-31T03:01:14;100812.00;;;15.64;75.37
78745;BME280;68064;53.100;8.824;2023-07-31T03:02:15;100812.72;;;15.57;79.01
78745;BME280;68064;53.100;8.824;2023-07-31T03:03:16;100811.88;;;15.58;76.26
78745;BME280;68064;53.100;8.824;2023-07-31T03:04:17;100809.28;;;15.58;76.71
78745;BME280;68064;53.100;8.824;2023-07-31T03:05:18;100819.59;;;15.56;76.93
78745;BME280;68064;53.100;8.824;2023-07-31T03:06:19;100821.28;;;15.56;79.70
78745;BME280;68064;53.100;8.824;2023-07-31T03:07:21;100813.63;;;15.60;77.16
78745;BME280;68064;53.100;8.824;2023-07-31T03:08:22;100819.66;;;15.61;76.47
78745;BME280;68064;53.100;8.824;2023-07-31T03:09:23;100820.19;;;15.46;79.97
78745;BME280;68064;53.100;8.824;2023-07-31T03:10:24;100809.03;;;15.47;78.45
78745;BME280;68064;53.100;8.824;2023-07-31T03:11:25;100810.78;;;15.48;79.28
78745;BME280;68064;53.100;8.824;2023-07-31T03:12:26;100808.28;;;15.51;77.75
78745;BME280;68064;53.100;8.824;2023-07-31T03:13:28;100813.44;;;15.51;77.53
78745;BME280;68064;53.100;8.824;2023-07-31T03:14:29;100810.03;;;15.52;78.29
78745;BME280;68064;53.100;8.824;2023-07-31T03:15:31;100803.25;;;15.57;76.02
78745;BME280;68064;53.100;8.824;2023-07-31T03:16:31;100805.75;;;15.54;76.93
78745;BME280;68064;53.100;8.824;2023-07-31T03:17:32;100802.34;;;15.54;80.31
78745;BME280;68064;53.100;8.824;2023-07-31T03:18:33;100804.00;;;15.52;77.71
78745;BME280;68064;53.100;8.824;2023-07-31T03:19:35;100798.91;;;15.55;79.58
78745;BME280;68064;53.100;8.824;2023-07-31T03:20:36;100804.91;;;15.54;77.09
78745;BME280;68064;53.100;8.824;2023-07-31T03:21:36;100799.47;;;15.45;81.79
78745;BME280;68064;53.100;8.824;2023-07-31T03:22:37;100805.53;;;15.45;78.59
78745;BME280;68064;53.100;8.824;2023-07-31T03:23:38;100796.09;;;15.46;83.18
78745;BME280;68064;53.100;8.824;2023-07-31T03:24:39;100802.00;;;15.42;80.15
78745;BME280;68064;53.100;8.824;2023-07-31T03:25:41;100794.31;;;15.43;78.72
78745;BME280;68064;53.100;8.824;2023-07-31T03:26:42;100803.13;;;15.51;81.35
78745;BME280;68064;53.100;8.824;2023-07-31T03:27:43;100801.25;;;15.46;81.43
78745;BME280;68064;53.100;8.824;2023-07-31T03:28:46;100801.28;;;15.47;78.26
78745;BME280;68064;53.100;8.824;2023-07-31T03:29:47;100803.88;;;15.47;77.71
78745;BME280;68064;53.100;8.824;2023-07-31T03:30:48;100801.34;;;15.49;79.93
78745;BME280;68064;53.100;8.824;2023-07-31T03:31:49;100801.34;;;15.49;80.55
78745;BME280;68064;53.100;8.824;2023-07-31T03:32:50;100801.19;;;15.43;79.59
78745;BME280;68064;53.100;8.824;2023-07-31T03:33:51;100800.38;;;15.45;77.46
78745;BME280;68064;53.100;8.824;2023-07-31T03:34:52;100799.63;;;15.49;77.32
78745;BME280;68064;53.100;8.824;2023-07-31T03:35:53;100799.63;;;15.49;76.14
78745;BME280;68064;53.100;8.824;2023-07-31T03:36:54;100799.72;;;15.52;78.12
78745;BME280;68064;53.100;8.824;2023-07-31T03:37:55;100802.28;;;15.51;75.92
78745;BME280;68064;53.100;8.824;2023-07-31T03:38:56;100797.00;;;15.48;81.01
78745;BME280;68064;53.100;8.824;2023-07-31T03:39:58;100796.09;;;15.46;78.94
78745;BME280;68064;53.100;8.824;2023-07-31T03:40:59;100802.06;;;15.45;83.48
78745;BME280;68064;53.100;8.824;2023-07-31T03:42:00;100797.78;;;15.44;77.26
78745;BME280;68064;53.100;8.824;2023-07-31T03:43:01;100798.66;;;15.46;76.70
78745;BME280;68064;53.100;8.824;2023-07-31T03:44:05;100802.13;;;15.46;82.15
78745;BME280;68064;53.100;8.824;2023-07-31T03:45:08;100800.50;;;15.50;80.76
78745;BME280;68064;53.100;8.824;2023-07-31T03:46:09;100796.75;;;15.37;84.34
78745;BME280;68064;53.100;8.824;2023-07-31T03:47:10;100792.47;;;15.38;78.79
78745;BME280;68064;53.100;8.824;2023-07-31T03:48:11;100801.97;;;15.40;83.42
78745;BME280;68064;53.100;8.824;2023-07-31T03:49:12;100795.13;;;15.41;78.46
78745;BME280;68064;53.100;8.824;2023-07-31T03:50:13;100789.09;;;15.42;77.02
78745;BME280;68064;53.100;8.824;2023-07-31T03:51:14;100792.56;;;15.42;80.03
78745;BME280;68064;53.100;8.824;2023-07-31T03:52:16;100787.47;;;15.45;76.94
78745;BME280;68064;53.100;8.824;2023-07-31T03:53:16;100788.44;;;15.49;76.46
78745;BME280;68064;53.100;8.824;2023-07-31T03:54:17;100794.53;;;15.51;77.52
78745;BME280;68064;53.100;8.824;2023-07-31T03:55:19;100788.31;;;15.44;77.54
78745;BME280;68064;53.100;8.824;2023-07-31T03:56:20;100790.84;;;15.43;79.20
78745;BME280;68064;53.100;8.824;2023-07-31T03:57:21;100796.78;;;15.38;83.37
78745;BME280;68064;53.100;8.824;2023-07-31T03:58:22;100796.91;;;15.45;79.62
78745;BME280;68064;53.100;8.824;2023-07-31T03:59:24;100787.44;;;15.44;77.05
78745;BME280;68064;53.100;8.824;2023-07-31T04:00:26;100791.72;;;15.43;81.59
78745;BME280;68064;53.100;8.824;2023-07-31T04:01:27;100793.38;;;15.40;82.71
78745;BME280;68064;53.100;8.824;2023-07-31T04:02:28;100790.59;;;15.30;83.02
78745;BME280;68064;53.100;8.824;2023-07-31T04:03:29;100787.31;;;15.38;78.44
78745;BME280;68064;53.100;8.824;2023-07-31T04:04:30;100791.69;;;15.42;77.68
78745;BME280;68064;53.100;8.824;2023-07-31T04:05:32;100791.75;;;15.45;77.33
78745;BME280;68064;53.100;8.824;2023-07-31T04:06:33;100789.16;;;15.45;77.29
78745;BME280;68064;53.100;8.824;2023-07-31T04:07:34;100792.53;;;15.41;77.81
78745;BME280;68064;53.100;8.824;2023-07-31T04:08:35;100792.59;;;15.44;76.36
78745;BME280;68064;53.100;8.824;2023-07-31T04:09:37;100790.22;;;15.51;76.49
78745;BME280;68064;53.100;8.824;2023-07-31T04:10:38;100791.78;;;15.46;78.27
78745;BME280;68064;53.100;8.824;2023-07-31T04:11:39;100791.69;;;15.42;77.60
78745;BME280;68064;53.100;8.824;2023-07-31T04:12:40;100788.25;;;15.41;81.63
78745;BME280;68064;53.100;8.824;2023-07-31T04:13:41;100787.34;;;15.39;78.03
78745;BME280;68064;53.100;8.824;2023-07-31T04:14:43;100795.06;;;15.38;81.74
78745;BME280;68064;53.100;8.824;2023-07-31T04:15:48;100778.75;;;15.40;76.96
78745;BME280;68064;53.100;8.824;2023-07-31T04:16:50;100787.38;;;15.41;79.63
78745;BME280;68064;53.100;8.824;2023-07-31T04:17:51;100785.69;;;15.41;78.97
78745;BME280;68064;53.100;8.824;2023-07-31T04:18:52;100781.34;;;15.40;78.61
78745;BME280;68064;53.100;8.824;2023-07-31T04:19:53;100780.47;;;15.40;77.63
78745;BME280;68064;53.100;8.824;2023-07-31T04:20:54;100772.72;;;15.40;78.74
78745;BME280;68064;53.100;8.824;2023-07-31T04:21:55;100780.53;;;15.41;81.03
78745;BME280;68064;53.100;8.824;2023-07-31T04:22:56;100774.34;;;15.34;81.77
78745;BME280;68064;53.100;8.824;2023-07-31T04:23:59;100764.03;;;15.34;79.15
78745;BME280;68064;53.100;8.824;2023-07-31T04:25:00;100767.63;;;15.43;77.00
78745;BME280;68064;53.100;8.824;2023-07-31T04:26:01;100768.53;;;15.45;76.94
78745;BME280;68064;53.100;8.824;2023-07-31T04:27:03;100768.53;;;15.45;83.00
78745;BME280;68064;53.100;8.824;2023-07-31T04:28:04;100768.44;;;15.40;79.21
78745;BME280;68064;53.100;8.824;2023-07-31T04:29:05;100768.59;;;15.46;76.87
78745;BME280;68064;53.100;8.824;2023-07-31T04:30:08;100759.91;;;15.43;78.21
78745;BME280;68064;53.100;8.824;2023-07-31T04:31:10;100765.16;;;15.47;76.74
78745;BME280;68064;53.100;8.824;2023-07-31T04:32:11;100771.22;;;15.48;76.50
78745;BME280;68064;53.100;8.824;2023-07-31T04:33:13;100760.94;;;15.49;75.75
78745;BME280;68064;53.100;8.824;2023-07-31T04:34:14;100762.72;;;15.52;77.18
78745;BME280;68064;53.100;8.824;2023-07-31T04:35:15;100761.75;;;15.48;76.23
78745;BME280;68064;53.100;8.824;2023-07-31T04:36:16;100757.59;;;15.53;76.01
78745;BME280;68064;53.100;8.824;2023-07-31T04:37:17;100760.19;;;15.53;76.33
78745;BME280;68064;53.100;8.824;2023-07-31T04:38:19;100764.47;;;15.53;76.51
78745;BME280;68064;53.100;8.824;2023-07-31T04:39:19;100759.25;;;15.51;76.74
78745;BME280;68064;53.100;8.824;2023-07-31T04:40:21;100751.50;;;15.51;77.76
78745;BME280;68064;53.100;8.824;2023-07-31T04:41:22;100757.38;;;15.46;78.80
78745;BME280;68064;53.100;8.824;2023-07-31T04:42:23;100755.78;;;15.49;77.24
78745;BME280;68064;53.100;8.824;2023-07-31T04:43:24;100757.66;;;15.56;77.46
78745;BME280;68064;53.100;8.824;2023-07-31T04:44:25;100749.88;;;15.55;77.69
78745;BME280;68064;53.100;8.824;2023-07-31T04:45:27;100755.81;;;15.51;77.64
78745;BME280;68064;53.100;8.824;2023-07-31T04:46:28;100752.31;;;15.49;79.10
78745;BME280;68064;53.100;8.824;2023-07-31T04:47:29;100753.16;;;15.48;77.98
78745;BME280;68064;53.100;8.824;2023-07-31T04:48:31;100748.03;;;15.49;76.60
78745;BME280;68064;53.100;8.824;2023-07-31T04:49:32;100755.81;;;15.51;81.37
78745;BME280;68064;53.100;8.824;2023-07-31T04:50:33;100758.22;;;15.45;83.88
78745;BME280;68064;53.100;8.824;2023-07-31T04:51:34;100751.25;;;15.41;80.26
78745;BME280;68064;53.100;8.824;2023-07-31T04:52:35;100749.56;;;15.41;82.08
78745;BME280;68064;53.100;8.824;2023-07-31T04:53:36;100747.00;;;15.43;80.02
78745;BME280;68064;53.100;8.824;2023-07-31T04:54:37;100752.28;;;15.47;82.01
78745;BME280;68064;53.100;8.824;2023-07-31T04:55:38;100750.56;;;15.48;77.51
78745;BME280;68064;53.100;8.824;2023-07-31T04:56:39;100754.84;;;15.47;77.58
78745;BME280;68064;53.100;8.824;2023-07-31T04:57:40;100750.66;;;15.51;81.75
78745;BME280;68064;53.100;8.824;2023-07-31T04:58:41;100747.75;;;15.37;85.16
78745;BME280;68064;53.100;8.824;2023-07-31T04:59:43;100746.88;;;15.36;82.23
78745;BME280;68064;53.100;8.824;2023-07-31T05:00:45;100744.47;;;15.44;79.13
78745;BME280;68064;53.100;8.824;2023-07-31T05:01:46;100747.88;;;15.45;83.74
78745;BME280;68064;53.100;8.824;2023-07-31T05:02:47;100742.66;;;15.40;84.48
78745;BME280;68064;53.100;8.824;2023-07-31T05:03:48;100742.66;;;15.42;83.40
78745;BME280;68064;53.100;8.824;2023-07-31T05:04:49;100741.03;;;15.45;78.26
78745;BME280;68064;53.100;8.824;2023-07-31T05:05:51;100739.53;;;15.53;77.17
78745;BME280;68064;53.100;8.824;2023-07-31T05:06:52;100744.69;;;15.53;77.17
78745;BME280;68064;53.100;8.824;2023-07-31T05:07:53;100740.34;;;15.51;80.20
78745;BME280;68064;53.100;8.824;2023-07-31T05:08:54;100743.84;;;15.54;77.91
78745;BME280;68064;53.100;8.824;2023-07-31T05:09:55;100740.41;;;15.54;83.43
78745;BME280;68064;53.100;8.824;2023-07-31T05:10:56;100741.19;;;15.51;79.23
78745;BME280;68064;53.100;8.824;2023-07-31T05:11:57;100738.72;;;15.57;80.44
78745;BME280;68064;53.100;8.824;2023-07-31T05:12:58;100734.25;;;15.49;84.25
78745;BME280;68064;53.100;8.824;2023-07-31T05:13:59;100740.38;;;15.52;79.89
78745;BME280;68064;53.100;8.824;2023-07-31T05:15:00;100737.78;;;15.52;83.16
78745;BME280;68064;53.100;8.824;2023-07-31T05:16:03;100739.41;;;15.49;82.88
78745;BME280;68064;53.100;8.824;2023-07-31T05:17:04;100735.19;;;15.52;78.50
78745;BME280;68064;53.100;8.824;2023-07-31T05:18:05;100735.31;;;15.58;77.94
78745;BME280;68064;53.100;8.824;2023-07-31T05:19:06;100730.16;;;15.58;84.58
78745;BME280;68064;53.100;8.824;2023-07-31T05:20:08;100736.03;;;15.51;85.32
78745;BME280;68064;53.100;8.824;2023-07-31T05:21:09;100736.91;;;15.52;85.08
78745;BME280;68064;53.100;8.824;2023-07-31T05:22:11;100729.22;;;15.53;79.60
78745;BME280;68064;53.100;8.824;2023-07-31T05:23:11;100736.16;;;15.56;84.61